Deridder, Louisiana
Current Conditions -  °F | °C
As of 9:55 PM on Saturday 22 Nov 2014 (Local Time) from KDRI Reporting Station
Light Rain Light Rain  
Wind Chill: 64°   Ceiling: 1000
Heat Index: 64°   Visibility: 7mi
Dew Point: 62°   Wind: 8mph
Humidity: 94%   Direction: 120°ESE
Pressure: 29.87"   Gusts: NA
Location:  30.85°N, 93.29°W
Report Text: KDRI 230355Z AUTO 12007KT 080V150 7SM -RA OVC010 18/17 A2987 RMK AO2 P0001 T01750166
Loading
Personal Weather Stations






























Interactive Weather Map New forecast layout! Learn more

10-Day Weather Forecast

Advertisements
Track Severe Weather on mobile